메인 페이지
METAR-TAF:

METAR-TAF

공항 :

인디애나폴리스 국제공항

인디애나폴리스, 인디애나, 미국

위도: 39-43-30N, 경도: 086-16-55W, 고도: 243m

현재 날씨관측

예보는 1 시간 3분 전, 03:54시(UTC)에 발표되었습니다.
서남서3kt
온도 4°C
습도 81%
기압 1025 hPa
시정: 16.1km
고도 23000ft 상공 구름 많음

METAR: KIND 160354Z 24003KT 10SM BKN230 04/01 A3028 RMK AO2 SLP257 T00390011

시각: 00:57 (04:57 UTC)

예보

예보는 2 시간 44분 전, 02:13시(UTC)에 발표되었습니다.
예보 대상 시간: 16일 02시부터 17일 06시까지 (UTC)
서북서5kt
시정: 10km
고도 25000ft 상공 구름 많음
16일 0500시부터 (UTC)
여러 방향의 바람 3kt
시정: 10km
고도 25000ft 상공 구름 조금
16일 1400시부터 (UTC)
서남서5kt
시정: 10km
고도 25000ft 상공 구름 조금

TAF: KIND 160213Z 1602/1706 29005KT P6SM BKN250 FM160500 VRB03KT P6SM FEW250 FM161400 24005KT P6SM FEW250

4,000개 이상의 공항 관측 자료 및 예보 (METAR 및 TAF 보고).

지도상에서 검색 가능한 기상관측소가 노란 점과 빨간 점으로 표시되어 있습니다.

기상관측소 명을 보려면 표시 위로 마우스를 이동하세요.

날씨 관측과 예보를 보려면 클릭하세요.

지도 변경 : 확대하려면 엑스 표시가 있는 녹색 버튼, 축소하려면 빼기 표시가 있는 녹색 버튼, 다음 페이지의 지도를 보려면 녹색 화살표를 클릭하세요.


METAR-TAF: